sensor_id;sensor_type;location;lat;lon;timestamp;P1;durP1;ratioP1;P2;durP2;ratioP2
33826;SDS011;20128;45.582;5.298;2023-08-20T00:00:49;9.75;;;3.47;;
33826;SDS011;20128;45.582;5.298;2023-08-20T00:03:14;11.32;;;4.07;;
33826;SDS011;20128;45.582;5.298;2023-08-20T00:05:40;7.32;;;4.10;;
33826;SDS011;20128;45.582;5.298;2023-08-20T00:08:06;13.00;;;4.03;;
33826;SDS011;20128;45.582;5.298;2023-08-20T00:10:32;9.13;;;3.92;;
33826;SDS011;20128;45.582;5.298;2023-08-20T00:12:58;10.20;;;3.35;;
33826;SDS011;20128;45.582;5.298;2023-08-20T00:15:24;8.75;;;4.00;;
33826;SDS011;20128;45.582;5.298;2023-08-20T00:17:52;11.75;;;3.95;;
33826;SDS011;20128;45.582;5.298;2023-08-20T00:20:18;11.07;;;3.97;;
33826;SDS011;20128;45.582;5.298;2023-08-20T00:22:46;7.95;;;3.85;;
33826;SDS011;20128;45.582;5.298;2023-08-20T00:25:12;13.23;;;4.40;;
33826;SDS011;20128;45.582;5.298;2023-08-20T00:27:39;10.18;;;3.78;;
33826;SDS011;20128;45.582;5.298;2023-08-20T00:30:06;12.95;;;4.40;;
33826;SDS011;20128;45.582;5.298;2023-08-20T00:32:33;7.05;;;4.10;;
33826;SDS011;20128;45.582;5.298;2023-08-20T00:35:00;15.50;;;4.05;;
33826;SDS011;20128;45.582;5.298;2023-08-20T00:37:27;10.27;;;4.15;;
33826;SDS011;20128;45.582;5.298;2023-08-20T00:39:53;9.52;;;3.90;;
33826;SDS011;20128;45.582;5.298;2023-08-20T00:42:19;9.35;;;4.18;;
33826;SDS011;20128;45.582;5.298;2023-08-20T00:44:45;17.48;;;4.72;;
33826;SDS011;20128;45.582;5.298;2023-08-20T00:47:10;13.55;;;4.00;;
33826;SDS011;20128;45.582;5.298;2023-08-20T00:49:40;12.50;;;3.83;;
33826;SDS011;20128;45.582;5.298;2023-08-20T00:52:07;9.70;;;4.57;;
33826;SDS011;20128;45.582;5.298;2023-08-20T00:54:34;6.90;;;4.10;;
33826;SDS011;20128;45.582;5.298;2023-08-20T00:57:01;9.07;;;4.10;;
33826;SDS011;20128;45.582;5.298;2023-08-20T00:59:27;13.27;;;4.60;;
33826;SDS011;20128;45.582;5.298;2023-08-20T01:01:55;10.25;;;4.22;;
33826;SDS011;20128;45.582;5.298;2023-08-20T01:04:20;8.40;;;3.78;;
33826;SDS011;20128;45.582;5.298;2023-08-20T01:07:08;9.13;;;4.18;;
33826;SDS011;20128;45.582;5.298;2023-08-20T01:12:16;9.38;;;4.05;;
33826;SDS011;20128;45.582;5.298;2023-08-20T01:14:44;11.50;;;4.53;;
33826;SDS011;20128;45.582;5.298;2023-08-20T01:17:10;11.73;;;4.07;;
33826;SDS011;20128;45.582;5.298;2023-08-20T01:19:35;9.07;;;4.18;;
33826;SDS011;20128;45.582;5.298;2023-08-20T01:22:15;8.82;;;3.90;;
33826;SDS011;20128;45.582;5.298;2023-08-20T01:24:55;9.38;;;4.20;;
33826;SDS011;20128;45.582;5.298;2023-08-20T01:30:19;7.30;;;4.40;;
33826;SDS011;20128;45.582;5.298;2023-08-20T01:32:46;10.10;;;4.35;;
33826;SDS011;20128;45.582;5.298;2023-08-20T01:35:16;10.95;;;3.90;;
33826;SDS011;20128;45.582;5.298;2023-08-20T01:37:42;12.32;;;4.75;;
33826;SDS011;20128;45.582;5.298;2023-08-20T01:40:08;10.48;;;4.22;;
33826;SDS011;20128;45.582;5.298;2023-08-20T01:42:35;13.60;;;4.65;;
33826;SDS011;20128;45.582;5.298;2023-08-20T01:45:05;9.75;;;4.10;;
33826;SDS011;20128;45.582;5.298;2023-08-20T01:47:34;15.23;;;4.97;;
33826;SDS011;20128;45.582;5.298;2023-08-20T01:50:00;9.75;;;4.38;;
33826;SDS011;20128;45.582;5.298;2023-08-20T01:52:27;9.43;;;4.57;;
33826;SDS011;20128;45.582;5.298;2023-08-20T01:54:54;14.73;;;4.35;;
33826;SDS011;20128;45.582;5.298;2023-08-20T01:57:20;9.10;;;4.57;;
33826;SDS011;20128;45.582;5.298;2023-08-20T01:59:47;10.00;;;4.22;;
33826;SDS011;20128;45.582;5.298;2023-08-20T02:02:13;12.80;;;4.65;;
33826;SDS011;20128;45.582;5.298;2023-08-20T02:04:38;11.55;;;4.82;;
33826;SDS011;20128;45.582;5.298;2023-08-20T02:07:04;14.30;;;4.90;;
33826;SDS011;20128;45.582;5.298;2023-08-20T02:09:30;11.45;;;5.32;;
33826;SDS011;20128;45.582;5.298;2023-08-20T02:11:55;9.38;;;4.45;;
33826;SDS011;20128;45.582;5.298;2023-08-20T02:14:21;11.07;;;4.78;;
33826;SDS011;20128;45.582;5.298;2023-08-20T02:16:47;14.65;;;5.18;;
33826;SDS011;20128;45.582;5.298;2023-08-20T02:19:12;11.25;;;5.18;;
33826;SDS011;20128;45.582;5.298;2023-08-20T02:21:39;10.77;;;4.57;;
33826;SDS011;20128;45.582;5.298;2023-08-20T02:24:06;13.30;;;5.00;;
33826;SDS011;20128;45.582;5.298;2023-08-20T02:26:31;17.10;;;5.07;;
33826;SDS011;20128;45.582;5.298;2023-08-20T02:28:57;11.35;;;5.05;;
33826;SDS011;20128;45.582;5.298;2023-08-20T02:31:23;11.02;;;4.47;;
33826;SDS011;20128;45.582;5.298;2023-08-20T02:33:48;10.05;;;4.45;;
33826;SDS011;20128;45.582;5.298;2023-08-20T02:36:14;11.07;;;4.30;;
33826;SDS011;20128;45.582;5.298;2023-08-20T02:38:40;11.57;;;3.70;;
33826;SDS011;20128;45.582;5.298;2023-08-20T02:41:06;11.65;;;4.30;;
33826;SDS011;20128;45.582;5.298;2023-08-20T02:43:31;12.02;;;5.53;;
33826;SDS011;20128;45.582;5.298;2023-08-20T02:45:57;16.45;;;4.82;;
33826;SDS011;20128;45.582;5.298;2023-08-20T02:48:23;11.57;;;4.95;;
33826;SDS011;20128;45.582;5.298;2023-08-20T02:50:52;12.65;;;4.97;;
33826;SDS011;20128;45.582;5.298;2023-08-20T02:53:19;10.85;;;4.32;;
33826;SDS011;20128;45.582;5.298;2023-08-20T02:55:45;13.40;;;4.88;;
33826;SDS011;20128;45.582;5.298;2023-08-20T02:58:11;9.20;;;4.53;;
33826;SDS011;20128;45.582;5.298;2023-08-20T03:00:36;10.07;;;5.28;;
33826;SDS011;20128;45.582;5.298;2023-08-20T03:03:02;8.50;;;5.05;;
33826;SDS011;20128;45.582;5.298;2023-08-20T03:05:31;16.92;;;4.13;;
33826;SDS011;20128;45.582;5.298;2023-08-20T03:07:57;14.52;;;5.47;;
33826;SDS011;20128;45.582;5.298;2023-08-20T03:10:23;9.65;;;4.40;;
33826;SDS011;20128;45.582;5.298;2023-08-20T03:12:49;9.85;;;4.80;;
33826;SDS011;20128;45.582;5.298;2023-08-20T03:15:14;8.93;;;3.92;;
33826;SDS011;20128;45.582;5.298;2023-08-20T03:17:40;13.52;;;5.03;;
33826;SDS011;20128;45.582;5.298;2023-08-20T03:20:06;11.27;;;4.78;;
33826;SDS011;20128;45.582;5.298;2023-08-20T03:22:32;6.22;;;4.43;;
33826;SDS011;20128;45.582;5.298;2023-08-20T03:24:58;7.90;;;4.80;;
33826;SDS011;20128;45.582;5.298;2023-08-20T03:27:24;9.93;;;4.63;;
33826;SDS011;20128;45.582;5.298;2023-08-20T03:29:49;11.60;;;5.10;;
33826;SDS011;20128;45.582;5.298;2023-08-20T03:32:16;10.50;;;4.70;;
33826;SDS011;20128;45.582;5.298;2023-08-20T03:34:43;9.80;;;4.22;;
33826;SDS011;20128;45.582;5.298;2023-08-20T03:37:08;10.35;;;4.10;;
33826;SDS011;20128;45.582;5.298;2023-08-20T03:39:34;12.85;;;5.13;;
33826;SDS011;20128;45.582;5.298;2023-08-20T03:41:59;17.27;;;4.97;;
33826;SDS011;20128;45.582;5.298;2023-08-20T03:44:25;8.75;;;5.05;;
33826;SDS011;20128;45.582;5.298;2023-08-20T03:46:51;8.63;;;5.18;;
33826;SDS011;20128;45.582;5.298;2023-08-20T03:49:17;12.73;;;6.13;;
33826;SDS011;20128;45.582;5.298;2023-08-20T03:51:42;9.75;;;5.07;;
33826;SDS011;20128;45.582;5.298;2023-08-20T03:54:08;11.98;;;4.88;;
33826;SDS011;20128;45.582;5.298;2023-08-20T03:56:34;10.05;;;4.50;;
33826;SDS011;20128;45.582;5.298;2023-08-20T03:59:01;14.05;;;5.03;;
33826;SDS011;20128;45.582;5.298;2023-08-20T04:01:27;9.07;;;4.72;;
33826;SDS011;20128;45.582;5.298;2023-08-20T04:03:53;9.13;;;5.00;;
33826;SDS011;20128;45.582;5.298;2023-08-20T04:06:18;14.55;;;5.57;;
33826;SDS011;20128;45.582;5.298;2023-08-20T04:08:44;12.20;;;5.32;;
33826;SDS011;20128;45.582;5.298;2023-08-20T04:11:09;12.23;;;5.72;;
33826;SDS011;20128;45.582;5.298;2023-08-20T04:13:35;10.32;;;5.18;;
33826;SDS011;20128;45.582;5.298;2023-08-20T04:16:01;9.13;;;4.10;;
33826;SDS011;20128;45.582;5.298;2023-08-20T04:18:26;8.60;;;4.97;;
33826;SDS011;20128;45.582;5.298;2023-08-20T04:20:52;8.38;;;4.63;;
33826;SDS011;20128;45.582;5.298;2023-08-20T04:23:19;7.82;;;4.63;;
33826;SDS011;20128;45.582;5.298;2023-08-20T04:25:45;14.05;;;5.10;;
33826;SDS011;20128;45.582;5.298;2023-08-20T04:28:11;13.48;;;5.10;;
33826;SDS011;20128;45.582;5.298;2023-08-20T04:30:37;11.00;;;4.63;;
33826;SDS011;20128;45.582;5.298;2023-08-20T04:33:04;7.38;;;4.25;;
33826;SDS011;20128;45.582;5.298;2023-08-20T04:35:30;8.95;;;4.35;;
33826;SDS011;20128;45.582;5.298;2023-08-20T04:37:56;13.43;;;5.22;;
33826;SDS011;20128;45.582;5.298;2023-08-20T04:40:21;10.95;;;6.03;;
33826;SDS011;20128;45.582;5.298;2023-08-20T04:42:48;9.50;;;5.03;;
33826;SDS011;20128;45.582;5.298;2023-08-20T04:45:14;9.95;;;4.68;;
33826;SDS011;20128;45.582;5.298;2023-08-20T04:47:42;9.45;;;5.28;;
33826;SDS011;20128;45.582;5.298;2023-08-20T04:50:07;9.07;;;4.90;;
33826;SDS011;20128;45.582;5.298;2023-08-20T04:52:33;8.48;;;5.13;;
33826;SDS011;20128;45.582;5.298;2023-08-20T04:55:00;13.80;;;6.10;;
33826;SDS011;20128;45.582;5.298;2023-08-20T04:57:26;14.77;;;5.22;;
33826;SDS011;20128;45.582;5.298;2023-08-20T04:59:51;8.55;;;5.28;;
33826;SDS011;20128;45.582;5.298;2023-08-20T05:02:17;15.70;;;5.68;;
33826;SDS011;20128;45.582;5.298;2023-08-20T05:04:43;8.23;;;5.60;;
33826;SDS011;20128;45.582;5.298;2023-08-20T05:07:08;10.68;;;5.28;;
33826;SDS011;20128;45.582;5.298;2023-08-20T05:09:34;11.68;;;5.60;;
33826;SDS011;20128;45.582;5.298;2023-08-20T05:12:00;13.52;;;5.85;;
33826;SDS011;20128;45.582;5.298;2023-08-20T05:14:26;9.27;;;5.57;;
33826;SDS011;20128;45.582;5.298;2023-08-20T05:16:51;11.02;;;5.95;;
33826;SDS011;20128;45.582;5.298;2023-08-20T05:19:17;13.35;;;6.03;;
33826;SDS011;20128;45.582;5.298;2023-08-20T05:21:42;19.75;;;6.15;;
33826;SDS011;20128;45.582;5.298;2023-08-20T05:24:08;11.23;;;5.82;;
33826;SDS011;20128;45.582;5.298;2023-08-20T05:26:34;19.33;;;5.20;;
33826;SDS011;20128;45.582;5.298;2023-08-20T05:29:00;9.48;;;5.65;;
33826;SDS011;20128;45.582;5.298;2023-08-20T05:31:25;16.50;;;6.00;;
33826;SDS011;20128;45.582;5.298;2023-08-20T05:33:51;14.57;;;5.60;;
33826;SDS011;20128;45.582;5.298;2023-08-20T05:36:17;14.40;;;5.38;;
33826;SDS011;20128;45.582;5.298;2023-08-20T05:38:43;19.85;;;5.63;;
33826;SDS011;20128;45.582;5.298;2023-08-20T05:41:08;7.97;;;5.97;;
33826;SDS011;20128;45.582;5.298;2023-08-20T05:43:34;15.38;;;6.45;;
33826;SDS011;20128;45.582;5.298;2023-08-20T05:46:01;15.90;;;6.60;;
33826;SDS011;20128;45.582;5.298;2023-08-20T05:48:27;18.75;;;5.93;;
33826;SDS011;20128;45.582;5.298;2023-08-20T05:50:53;16.77;;;5.57;;
33826;SDS011;20128;45.582;5.298;2023-08-20T05:53:19;15.50;;;6.43;;
33826;SDS011;20128;45.582;5.298;2023-08-20T05:55:44;13.80;;;5.95;;
33826;SDS011;20128;45.582;5.298;2023-08-20T05:58:10;12.55;;;5.65;;
33826;SDS011;20128;45.582;5.298;2023-08-20T06:00:36;13.52;;;5.25;;
33826;SDS011;20128;45.582;5.298;2023-08-20T06:03:01;12.02;;;5.78;;
33826;SDS011;20128;45.582;5.298;2023-08-20T06:05:27;7.07;;;5.50;;
33826;SDS011;20128;45.582;5.298;2023-08-20T06:07:53;11.02;;;5.13;;
33826;SDS011;20128;45.582;5.298;2023-08-20T06:10:19;10.15;;;5.75;;
33826;SDS011;20128;45.582;5.298;2023-08-20T06:12:44;13.65;;;5.68;;
33826;SDS011;20128;45.582;5.298;2023-08-20T06:15:10;12.60;;;6.25;;
33826;SDS011;20128;45.582;5.298;2023-08-20T06:17:35;10.30;;;5.82;;
33826;SDS011;20128;45.582;5.298;2023-08-20T06:20:01;12.75;;;6.18;;
33826;SDS011;20128;45.582;5.298;2023-08-20T06:22:30;14.35;;;6.07;;
33826;SDS011;20128;45.582;5.298;2023-08-20T06:24:56;12.95;;;6.40;;
33826;SDS011;20128;45.582;5.298;2023-08-20T06:27:22;13.73;;;5.78;;
33826;SDS011;20128;45.582;5.298;2023-08-20T06:29:48;15.85;;;5.93;;
33826;SDS011;20128;45.582;5.298;2023-08-20T06:32:14;10.45;;;5.90;;
33826;SDS011;20128;45.582;5.298;2023-08-20T06:34:39;12.68;;;5.88;;
33826;SDS011;20128;45.582;5.298;2023-08-20T06:37:05;13.75;;;5.95;;
33826;SDS011;20128;45.582;5.298;2023-08-20T06:39:31;15.05;;;5.88;;
33826;SDS011;20128;45.582;5.298;2023-08-20T06:41:56;12.63;;;5.53;;
33826;SDS011;20128;45.582;5.298;2023-08-20T06:44:22;11.43;;;6.07;;
33826;SDS011;20128;45.582;5.298;2023-08-20T06:46:47;17.90;;;6.00;;
33826;SDS011;20128;45.582;5.298;2023-08-20T06:49:13;11.30;;;6.30;;
33826;SDS011;20128;45.582;5.298;2023-08-20T06:51:39;18.85;;;7.03;;
33826;SDS011;20128;45.582;5.298;2023-08-20T06:54:04;14.20;;;7.15;;
33826;SDS011;20128;45.582;5.298;2023-08-20T06:56:33;8.32;;;6.32;;
33826;SDS011;20128;45.582;5.298;2023-08-20T06:58:59;9.15;;;5.80;;
33826;SDS011;20128;45.582;5.298;2023-08-20T07:01:25;10.80;;;5.93;;
33826;SDS011;20128;45.582;5.298;2023-08-20T07:03:51;12.30;;;6.38;;
33826;SDS011;20128;45.582;5.298;2023-08-20T07:06:17;8.05;;;6.05;;
33826;SDS011;20128;45.582;5.298;2023-08-20T07:08:43;15.00;;;6.20;;
33826;SDS011;20128;45.582;5.298;2023-08-20T07:11:10;9.85;;;5.78;;
33826;SDS011;20128;45.582;5.298;2023-08-20T07:13:36;11.30;;;6.05;;
33826;SDS011;20128;45.582;5.298;2023-08-20T07:16:01;13.80;;;5.70;;
33826;SDS011;20128;45.582;5.298;2023-08-20T07:18:27;13.23;;;6.65;;
33826;SDS011;20128;45.582;5.298;2023-08-20T07:20:54;13.85;;;7.35;;
33826;SDS011;20128;45.582;5.298;2023-08-20T07:23:20;12.07;;;6.97;;
33826;SDS011;20128;45.582;5.298;2023-08-20T07:25:46;10.02;;;6.55;;
33826;SDS011;20128;45.582;5.298;2023-08-20T07:28:13;12.43;;;6.22;;
33826;SDS011;20128;45.582;5.298;2023-08-20T07:30:39;9.90;;;6.30;;
33826;SDS011;20128;45.582;5.298;2023-08-20T07:33:05;14.55;;;6.45;;
33826;SDS011;20128;45.582;5.298;2023-08-20T07:35:32;13.40;;;6.15;;
33826;SDS011;20128;45.582;5.298;2023-08-20T07:37:58;20.70;;;7.10;;
33826;SDS011;20128;45.582;5.298;2023-08-20T07:40:24;14.45;;;6.18;;
33826;SDS011;20128;45.582;5.298;2023-08-20T07:42:50;11.98;;;7.10;;
33826;SDS011;20128;45.582;5.298;2023-08-20T07:45:16;12.82;;;7.30;;
33826;SDS011;20128;45.582;5.298;2023-08-20T07:47:42;10.23;;;7.10;;
33826;SDS011;20128;45.582;5.298;2023-08-20T07:50:08;12.98;;;6.57;;
33826;SDS011;20128;45.582;5.298;2023-08-20T07:52:34;16.95;;;7.70;;
33826;SDS011;20128;45.582;5.298;2023-08-20T07:54:59;14.30;;;7.45;;
33826;SDS011;20128;45.582;5.298;2023-08-20T07:57:25;12.43;;;7.43;;
33826;SDS011;20128;45.582;5.298;2023-08-20T07:59:51;11.13;;;6.25;;
33826;SDS011;20128;45.582;5.298;2023-08-20T08:02:17;14.60;;;6.07;;
33826;SDS011;20128;45.582;5.298;2023-08-20T08:04:43;12.45;;;6.82;;
33826;SDS011;20128;45.582;5.298;2023-08-20T08:07:09;14.05;;;6.65;;
33826;SDS011;20128;45.582;5.298;2023-08-20T08:09:35;16.55;;;6.93;;
33826;SDS011;20128;45.582;5.298;2023-08-20T08:12:01;13.75;;;6.43;;
33826;SDS011;20128;45.582;5.298;2023-08-20T08:14:27;8.73;;;6.30;;
33826;SDS011;20128;45.582;5.298;2023-08-20T08:16:52;15.27;;;6.40;;
33826;SDS011;20128;45.582;5.298;2023-08-20T08:19:19;12.57;;;5.65;;
33826;SDS011;20128;45.582;5.298;2023-08-20T08:21:45;10.68;;;6.10;;
33826;SDS011;20128;45.582;5.298;2023-08-20T08:24:11;13.43;;;7.72;;
33826;SDS011;20128;45.582;5.298;2023-08-20T08:26:37;11.43;;;6.53;;
33826;SDS011;20128;45.582;5.298;2023-08-20T08:29:03;11.63;;;6.47;;
33826;SDS011;20128;45.582;5.298;2023-08-20T08:31:30;8.93;;;6.32;;
33826;SDS011;20128;45.582;5.298;2023-08-20T08:33:55;11.90;;;6.78;;
33826;SDS011;20128;45.582;5.298;2023-08-20T08:36:21;12.57;;;6.55;;
33826;SDS011;20128;45.582;5.298;2023-08-20T08:38:49;11.13;;;5.95;;
33826;SDS011;20128;45.582;5.298;2023-08-20T08:41:16;11.70;;;6.68;;
33826;SDS011;20128;45.582;5.298;2023-08-20T08:43:42;14.32;;;8.73;;
33826;SDS011;20128;45.582;5.298;2023-08-20T08:46:11;22.30;;;13.77;;
33826;SDS011;20128;45.582;5.298;2023-08-20T08:48:46;12.18;;;6.20;;
33826;SDS011;20128;45.582;5.298;2023-08-20T08:51:13;11.52;;;5.97;;
33826;SDS011;20128;45.582;5.298;2023-08-20T08:53:39;12.50;;;6.07;;
33826;SDS011;20128;45.582;5.298;2023-08-20T08:56:06;12.70;;;6.32;;
33826;SDS011;20128;45.582;5.298;2023-08-20T08:58:32;14.00;;;6.22;;
33826;SDS011;20128;45.582;5.298;2023-08-20T09:00:58;9.98;;;6.15;;
33826;SDS011;20128;45.582;5.298;2023-08-20T09:03:24;11.73;;;6.05;;
33826;SDS011;20128;45.582;5.298;2023-08-20T09:05:51;11.48;;;5.90;;
33826;SDS011;20128;45.582;5.298;2023-08-20T09:08:21;8.30;;;5.55;;
33826;SDS011;20128;45.582;5.298;2023-08-20T09:10:50;10.88;;;6.03;;
33826;SDS011;20128;45.582;5.298;2023-08-20T09:13:17;16.42;;;5.88;;
33826;SDS011;20128;45.582;5.298;2023-08-20T09:15:43;13.48;;;5.93;;
33826;SDS011;20128;45.582;5.298;2023-08-20T09:18:10;6.97;;;5.57;;
33826;SDS011;20128;45.582;5.298;2023-08-20T09:20:36;15.98;;;5.70;;
33826;SDS011;20128;45.582;5.298;2023-08-20T09:23:02;10.27;;;5.70;;
33826;SDS011;20128;45.582;5.298;2023-08-20T09:25:28;10.25;;;4.82;;
33826;SDS011;20128;45.582;5.298;2023-08-20T09:27:53;9.38;;;4.82;;
33826;SDS011;20128;45.582;5.298;2023-08-20T09:30:19;13.57;;;6.22;;
33826;SDS011;20128;45.582;5.298;2023-08-20T09:32:45;9.77;;;5.70;;
33826;SDS011;20128;45.582;5.298;2023-08-20T09:35:27;12.27;;;5.05;;
33826;SDS011;20128;45.582;5.298;2023-08-20T09:37:58;12.27;;;5.18;;
33826;SDS011;20128;45.582;5.298;2023-08-20T09:40:25;14.82;;;5.15;;
33826;SDS011;20128;45.582;5.298;2023-08-20T09:42:51;9.15;;;4.93;;
33826;SDS011;20128;45.582;5.298;2023-08-20T09:45:19;10.88;;;4.72;;
33826;SDS011;20128;45.582;5.298;2023-08-20T09:47:46;15.32;;;5.45;;
33826;SDS011;20128;45.582;5.298;2023-08-20T09:50:15;9.40;;;5.50;;
33826;SDS011;20128;45.582;5.298;2023-08-20T09:52:55;17.00;;;5.13;;
33826;SDS011;20128;45.582;5.298;2023-08-20T09:55:24;12.57;;;5.10;;
33826;SDS011;20128;45.582;5.298;2023-08-20T09:57:54;10.70;;;5.53;;
33826;SDS011;20128;45.582;5.298;2023-08-20T10:00:21;11.45;;;5.22;;
33826;SDS011;20128;45.582;5.298;2023-08-20T10:02:47;11.45;;;4.88;;
33826;SDS011;20128;45.582;5.298;2023-08-20T10:05:14;11.57;;;5.15;;
33826;SDS011;20128;45.582;5.298;2023-08-20T10:07:40;10.95;;;5.32;;
33826;SDS011;20128;45.582;5.298;2023-08-20T10:10:08;9.32;;;5.32;;
33826;SDS011;20128;45.582;5.298;2023-08-20T10:12:38;9.73;;;5.05;;
33826;SDS011;20128;45.582;5.298;2023-08-20T10:15:07;8.93;;;5.20;;
33826;SDS011;20128;45.582;5.298;2023-08-20T10:17:34;11.52;;;5.68;;
33826;SDS011;20128;45.582;5.298;2023-08-20T10:20:01;7.78;;;4.57;;
33826;SDS011;20128;45.582;5.298;2023-08-20T10:22:32;8.57;;;4.38;;
33826;SDS011;20128;45.582;5.298;2023-08-20T10:25:01;18.73;;;5.80;;
33826;SDS011;20128;45.582;5.298;2023-08-20T10:27:34;18.10;;;5.43;;
33826;SDS011;20128;45.582;5.298;2023-08-20T10:30:01;10.30;;;5.15;;
33826;SDS011;20128;45.582;5.298;2023-08-20T10:32:51;10.85;;;4.75;;
33826;SDS011;20128;45.582;5.298;2023-08-20T10:35:28;7.15;;;4.60;;
33826;SDS011;20128;45.582;5.298;2023-08-20T10:38:14;11.80;;;4.20;;
33826;SDS011;20128;45.582;5.298;2023-08-20T10:40:56;9.70;;;5.05;;
33826;SDS011;20128;45.582;5.298;2023-08-20T10:43:31;5.18;;;4.53;;
33826;SDS011;20128;45.582;5.298;2023-08-20T10:48:28;12.38;;;4.75;;
33826;SDS011;20128;45.582;5.298;2023-08-20T10:50:55;10.43;;;5.20;;
33826;SDS011;20128;45.582;5.298;2023-08-20T10:53:21;12.73;;;5.03;;
33826;SDS011;20128;45.582;5.298;2023-08-20T10:55:50;9.30;;;5.13;;
33826;SDS011;20128;45.582;5.298;2023-08-20T10:58:17;7.82;;;4.63;;
33826;SDS011;20128;45.582;5.298;2023-08-20T11:00:42;10.30;;;4.72;;
33826;SDS011;20128;45.582;5.298;2023-08-20T11:03:08;14.57;;;5.50;;
33826;SDS011;20128;45.582;5.298;2023-08-20T11:05:34;6.65;;;5.18;;
33826;SDS011;20128;45.582;5.298;2023-08-20T11:08:00;15.20;;;4.45;;
33826;SDS011;20128;45.582;5.298;2023-08-20T11:10:28;8.52;;;4.20;;
33826;SDS011;20128;45.582;5.298;2023-08-20T11:12:54;12.00;;;5.13;;
33826;SDS011;20128;45.582;5.298;2023-08-20T11:15:20;7.55;;;4.88;;
33826;SDS011;20128;45.582;5.298;2023-08-20T11:17:46;10.40;;;5.03;;
33826;SDS011;20128;45.582;5.298;2023-08-20T11:20:15;9.45;;;4.57;;
33826;SDS011;20128;45.582;5.298;2023-08-20T11:22:41;9.10;;;4.35;;
33826;SDS011;20128;45.582;5.298;2023-08-20T11:25:10;12.23;;;5.10;;
33826;SDS011;20128;45.582;5.298;2023-08-20T11:27:43;6.43;;;4.72;;
33826;SDS011;20128;45.582;5.298;2023-08-20T11:30:09;11.80;;;5.03;;
33826;SDS011;20128;45.582;5.298;2023-08-20T11:32:37;7.65;;;4.43;;
33826;SDS011;20128;45.582;5.298;2023-08-20T11:35:03;9.55;;;4.95;;
33826;SDS011;20128;45.582;5.298;2023-08-20T11:37:30;14.27;;;4.30;;
33826;SDS011;20128;45.582;5.298;2023-08-20T11:39:55;16.90;;;4.82;;
33826;SDS011;20128;45.582;5.298;2023-08-20T11:42:22;8.30;;;4.45;;
33826;SDS011;20128;45.582;5.298;2023-08-20T11:44:48;10.15;;;4.65;;
33826;SDS011;20128;45.582;5.298;2023-08-20T11:47:17;12.52;;;5.43;;
33826;SDS011;20128;45.582;5.298;2023-08-20T11:49:43;13.90;;;5.13;;
33826;SDS011;20128;45.582;5.298;2023-08-20T11:52:09;22.48;;;14.85;;
33826;SDS011;20128;45.582;5.298;2023-08-20T11:54:37;9.85;;;8.80;;
33826;SDS011;20128;45.582;5.298;2023-08-20T11:57:04;16.33;;;4.65;;
33826;SDS011;20128;45.582;5.298;2023-08-20T11:59:31;7.82;;;4.60;;
33826;SDS011;20128;45.582;5.298;2023-08-20T12:01:57;9.52;;;4.15;;
33826;SDS011;20128;45.582;5.298;2023-08-20T12:04:25;10.75;;;4.80;;
33826;SDS011;20128;45.582;5.298;2023-08-20T12:07:12;9.15;;;4.28;;
33826;SDS011;20128;45.582;5.298;2023-08-20T12:09:39;8.80;;;4.75;;
33826;SDS011;20128;45.582;5.298;2023-08-20T12:12:06;8.70;;;5.05;;
33826;SDS011;20128;45.582;5.298;2023-08-20T12:14:33;9.38;;;4.63;;
33826;SDS011;20128;45.582;5.298;2023-08-20T12:16:59;14.48;;;4.43;;
33826;SDS011;20128;45.582;5.298;2023-08-20T12:19:24;10.57;;;4.57;;
33826;SDS011;20128;45.582;5.298;2023-08-20T12:21:50;10.95;;;4.60;;
33826;SDS011;20128;45.582;5.298;2023-08-20T12:24:16;10.25;;;5.18;;
33826;SDS011;20128;45.582;5.298;2023-08-20T12:26:44;9.43;;;4.18;;
33826;SDS011;20128;45.582;5.298;2023-08-20T12:29:10;13.82;;;4.38;;
33826;SDS011;20128;45.582;5.298;2023-08-20T12:31:36;11.18;;;4.25;;
33826;SDS011;20128;45.582;5.298;2023-08-20T12:34:01;11.98;;;4.32;;
33826;SDS011;20128;45.582;5.298;2023-08-20T12:36:28;10.65;;;4.28;;
33826;SDS011;20128;45.582;5.298;2023-08-20T12:38:55;9.15;;;4.18;;
33826;SDS011;20128;45.582;5.298;2023-08-20T12:41:21;6.90;;;3.80;;
33826;SDS011;20128;45.582;5.298;2023-08-20T12:43:46;6.28;;;3.67;;
33826;SDS011;20128;45.582;5.298;2023-08-20T12:46:12;9.90;;;4.43;;
33826;SDS011;20128;45.582;5.298;2023-08-20T12:48:38;9.63;;;4.32;;
33826;SDS011;20128;45.582;5.298;2023-08-20T12:51:04;12.02;;;3.45;;
33826;SDS011;20128;45.582;5.298;2023-08-20T12:53:30;10.27;;;4.07;;
33826;SDS011;20128;45.582;5.298;2023-08-20T12:55:56;11.13;;;4.65;;
33826;SDS011;20128;45.582;5.298;2023-08-20T12:58:22;11.82;;;4.70;;
33826;SDS011;20128;45.582;5.298;2023-08-20T13:00:48;15.40;;;3.80;;
33826;SDS011;20128;45.582;5.298;2023-08-20T13:03:15;11.82;;;3.80;;
33826;SDS011;20128;45.582;5.298;2023-08-20T13:05:41;10.85;;;3.80;;
33826;SDS011;20128;45.582;5.298;2023-08-20T13:08:07;14.15;;;4.45;;
33826;SDS011;20128;45.582;5.298;2023-08-20T13:10:33;12.80;;;4.28;;
33826;SDS011;20128;45.582;5.298;2023-08-20T13:13:02;9.02;;;4.15;;
33826;SDS011;20128;45.582;5.298;2023-08-20T13:15:28;19.55;;;4.47;;
33826;SDS011;20128;45.582;5.298;2023-08-20T13:17:54;8.15;;;3.65;;
33826;SDS011;20128;45.582;5.298;2023-08-20T13:20:20;13.98;;;4.10;;
33826;SDS011;20128;45.582;5.298;2023-08-20T13:22:48;8.27;;;3.65;;
33826;SDS011;20128;45.582;5.298;2023-08-20T13:25:15;13.45;;;4.60;;
33826;SDS011;20128;45.582;5.298;2023-08-20T13:27:41;9.77;;;3.70;;
33826;SDS011;20128;45.582;5.298;2023-08-20T13:30:07;8.32;;;3.63;;
33826;SDS011;20128;45.582;5.298;2023-08-20T13:32:33;14.68;;;4.38;;
33826;SDS011;20128;45.582;5.298;2023-08-20T13:34:59;15.15;;;4.40;;
33826;SDS011;20128;45.582;5.298;2023-08-20T13:37:25;7.97;;;3.67;;
33826;SDS011;20128;45.582;5.298;2023-08-20T13:39:51;12.63;;;3.88;;
33826;SDS011;20128;45.582;5.298;2023-08-20T13:42:16;10.63;;;3.60;;
33826;SDS011;20128;45.582;5.298;2023-08-20T13:44:42;10.40;;;3.88;;
33826;SDS011;20128;45.582;5.298;2023-08-20T13:47:08;8.55;;;3.45;;
33826;SDS011;20128;45.582;5.298;2023-08-20T13:49:34;9.77;;;3.83;;
33826;SDS011;20128;45.582;5.298;2023-08-20T13:51:59;7.13;;;3.33;;
33826;SDS011;20128;45.582;5.298;2023-08-20T13:54:25;11.60;;;3.88;;
33826;SDS011;20128;45.582;5.298;2023-08-20T13:56:51;10.90;;;3.47;;
33826;SDS011;20128;45.582;5.298;2023-08-20T13:59:16;11.73;;;3.63;;
33826;SDS011;20128;45.582;5.298;2023-08-20T14:01:42;10.23;;;4.00;;
33826;SDS011;20128;45.582;5.298;2023-08-20T14:04:08;11.60;;;3.90;;
33826;SDS011;20128;45.582;5.298;2023-08-20T14:06:33;12.57;;;3.90;;
33826;SDS011;20128;45.582;5.298;2023-08-20T14:08:59;12.20;;;4.35;;
33826;SDS011;20128;45.582;5.298;2023-08-20T14:11:24;15.23;;;4.43;;
33826;SDS011;20128;45.582;5.298;2023-08-20T14:13:50;9.82;;;3.75;;
33826;SDS011;20128;45.582;5.298;2023-08-20T14:16:16;10.45;;;3.63;;
33826;SDS011;20128;45.582;5.298;2023-08-20T14:18:42;9.50;;;3.40;;
33826;SDS011;20128;45.582;5.298;2023-08-20T14:21:07;22.35;;;4.88;;
33826;SDS011;20128;45.582;5.298;2023-08-20T14:23:33;16.17;;;5.32;;
33826;SDS011;20128;45.582;5.298;2023-08-20T14:26:00;11.07;;;3.80;;
33826;SDS011;20128;45.582;5.298;2023-08-20T14:28:25;8.90;;;3.75;;
33826;SDS011;20128;45.582;5.298;2023-08-20T14:30:51;12.27;;;4.65;;
33826;SDS011;20128;45.582;5.298;2023-08-20T14:33:19;15.98;;;3.65;;
33826;SDS011;20128;45.582;5.298;2023-08-20T14:35:45;19.52;;;4.07;;
33826;SDS011;20128;45.582;5.298;2023-08-20T14:38:11;20.98;;;3.72;;
33826;SDS011;20128;45.582;5.298;2023-08-20T14:40:40;15.05;;;3.50;;
33826;SDS011;20128;45.582;5.298;2023-08-20T14:43:08;12.57;;;3.78;;